AirNav   Duncan Aviation - Near you to keep you flying
 
 1258 users online  

46KS Hidden Valley Airport
Valley Center, Kansas, USA

GOING TO VALLEY CENTER?


FAA INFORMATION EFFECTIVE 11 AUGUST 2022

Location

FAA Identifier: 46KS
Lat/Long: 37-50-00.2700N 097-21-47.7600W
37-50.004500N 097-21.796000W
37.8334083,-97.3632667
(estimated)
Elevation: 1345 ft. / 410 m (estimated)
Variation: 07E (1985)
Time zone: UTC -5 (UTC -6 during Standard Time)
Zip code: 67147

Airport Operations

Airport use: Private use. Permission required prior to landing
Activation date: 09/1962
Control tower: no
ARTCC: KANSAS CITY CENTER
FSS: WICHITA FLIGHT SERVICE STATION
Attendance: UNATNDD
Wind indicator: yes
Segmented circle: no

Airport Communications

WX ASOS at AAO (8 nm SE): 134.025 (316-636-2541)
WX AWOS-3PT at BEC (11 nm SE): 119.45 (316-515-7116)
WX ASOS at ICT (11 nm S): PHONE 316-945-8022
WX AWOS-2 at 1K1 (12 nm E): 118.3 (316-530-6004)
WX AWOS-3PT at EWK (14 nm N): 123.875 (316-283-8789)
WX AWOS-3P at 3AU (17 nm SE): 124.175 (316-733-6696)

Nearby radio navigation aids

VOR radial/distance  VOR name  Freq  Var
ICTr056/11.7WICHITA VORTAC113.8007E
HUTr106/28.7HUTCHINSON VOR/DME116.8004E

Airport Services

Runway Information

Runway 17/35

Dimensions: 2434 x 50 ft. / 742 x 15 m
Surface: turf
RUNWAY 17  RUNWAY 35
Latitude: 37-50.205000N37-49.804000N
Longitude: 097-21.802000W097-21.790000W
Elevation: 1345.0 ft.1345.0 ft.
Traffic pattern: leftleft
Runway heading: 172 magnetic, 179 true352 magnetic, 359 true
Obstructions: 50 ft. pline, 1500 ft. from runway50 ft. pline, 700 ft. from runway

Airport Ownership and Management from official FAA records

Ownership: Privately-owned
Owner: CENTER AVIATION INC.
158 S. MILES AVENUE
VALLEY CENTER, KS 67147
Phone 316-755-0265
Manager: HOWARD BOTTS, PRESIDENT
158 S. MILES AVENUE
VALLEY CENTER, KS 67147
Phone 316-259-8073

Airport Operational Statistics

Aircraft based on the field: 5
Single engine airplanes: 5
    

Additional Remarks

FOR CD CTC WICHITA APCH AT 316-350-1520.

Instrument Procedures

There are no published instrument procedures at 46KS.

Some nearby airports with instrument procedures:

KAAO - Colonel James Jabara Airport (8 nm SE)
KBEC - Beech Factory Airport (11 nm SE)
KICT - Wichita Dwight D Eisenhower National Airport (11 nm S)
KCEA - Cessna Aircraft Field Airport (12 nm SE)
1K1 - Lloyd Stearman Field Airport (12 nm E)
KIAB - Mc Connell Air Force Base (13 nm S)
KEWK - Newton City/County Airport (14 nm N)
3AU - Augusta Municipal Airport (17 nm SE)
 
Loc | Ops | Rwys | IFR | FBO | Links
Com | Nav | Svcs | Stats | Notes
Area around 46KS (Hidden Valley Airport)
 
Road maps at: MapQuest Bing Google
 
Aerial photo
No photo
 
Sectional chart

 
Airport distance calculator
Flying to Hidden Valley Airport? Find the distance to fly.

From to 46KS

Sunrise and sunset
Times for 16-Aug-2022
 Local
(UTC-5)
 Zulu
(UTC)
Morning civil twilight06:1911:19
Sunrise06:4711:47
Sunset20:2101:21
Evening civil twilight20:4901:49

Current date and time
Zulu (UTC)  17-Aug-2022 01:04:32
Local (UTC-5)  16-Aug-2022 20:04:32
 
METAR
KAAO 
9nm SE 
170054Z AUTO 04015G19KT 10SM OVC011 22/19 A3000 RMK AO2 SLP146 T02220194
KBEC 
11nm SE 
170055Z AUTO 03012G21KT 10SM OVC013 22/19 A2999 RMK AO2 T02200186
KICT 
11nm S 
170053Z 03017G23KT 10SM OVC015 23/19 A2999 RMK AO2 PK WND 03026/0031 SLP142 T02280189
K1K1 
12nm E 
170055Z AUTO 03009G16KT 360V070 10SM OVC009 22/19 A3000 RMK AO2 T02160185
KEWK 
13nm N 
170056Z AUTO 03012KT 10SM OVC008 21/19 A3002 RMK AO2 SLP153 T02110189
KIAB 
14nm S 
170055Z AUTO 04018G24KT 10SM OVC013 22/19 A2996 RMK AO2 SLPNO T02240192 $
K3AU 
17nm SE 
170055Z AUTO 03016KT 10SM OVC012 22/18 A3000 RMK AO2
TAF
KICT 
11nm S 
162208Z 1622/1718 01012KT P6SM VCSH SCT110 BKN140 FM170300 03012KT P6SM OVC020 FM170400 03011KT P6SM OVC010 FM170900 02009KT P6SM VCSH OVC008 FM171600 04009KT P6SM OVC012
KIAB 
14nm S 
161800Z 1618/1724 05010G16KT 9999 SCT080 BKN200 QNH2986INS BECMG 1620/1621 01015G25KT 9000 -SHRA VCTS SCT020 BKN050 QNH2985INS TEMPO 1622/1604 8000 -SHRA BECMG 1704/1705 04010G17KT 9999 VCSH BKN012 OVC020 QNH2998INS TEMPO 1707/0714 8000 -RADZ BKN006 OVC010 BECMG 1715/1716 03010G17KT 9999 NSW SCT012 BKN025 OVC050 QNH3005INS BECMG 1721/1722 04009KT 9999 FEW025 BKN070 BKN200 QNH3005INS TX31/1621Z TN18/1712Z
NOTAMs
Click for the latest NOTAMs
NOTAMs are issued by the DoD/FAA and will open in a separate window not controlled by AirNav.

 

 
 

Would you like to see your business listed on this page?

 If your business provides an interesting product or service to pilots, flight crews, aircraft, or users of the Hidden Valley Airport, you should consider listing it here.  To start the listing process, click on the button below
 
Add a business
 

Other Pages about Hidden Valley Airport

Update a link
 
Copyright © AirNav, LLC. All rights reserved. Privacy Policy  Contact